Coffey, Missouri
Current Conditions -  °F | °C
As of 2:53 PM on Thursday 20 Nov 2014 (Local Time) from KLWD Reporting Station
Clear Clear  
Wind Chill: -7°   Ceiling: Unl
Heat Index: -2°   Visibility: 10mi
Dew Point: -8°   Wind: 12mph
Humidity: 61%   Direction: 310°NW
Pressure: 30.19"   Gusts: NA
Location:  40.11°N, 94.01°W
Report Text: KLWD 202053Z AUTO 31010KT 10SM CLR M02/M08 A3019 RMK AO2 SLP239 T10171083 56010
Loading
Personal Weather Stations






























Interactive Weather Map New forecast layout! Learn more

10-Day Weather Forecast

Advertisements
Track Severe Weather on mobile